Time;durP1;ratioP1;P1;durP2;ratioP2;P2;SDS_P1;SDS_P2;PMS_P1;PMS_P2;Temp;Humidity;BMP_temperature;BMP_pressure;BME280_temperature;BME280_humidity;BME280_pressure;Samples;Min_cycle;Max_cycle;Signal;HPM_P1;HPM_P2
2022/05/23 00:01:53;;;;;;;0.00;0.00;;;;;;;;;;5036930;28;92381;-75
2022/05/23 00:04:20;;;;;;;0.00;0.00;;;;;;;;;;5040189;28;94214;-75
2022/05/23 00:06:46;;;;;;;0.03;0.03;;;;;;;;;;5037790;28;92281;-75
2022/05/23 00:09:13;;;;;;;0.10;0.10;;;;;;;;;;5037430;28;94310;-75
2022/05/23 00:11:40;;;;;;;1.30;0.30;;;;;;;;;;5037939;28;92751;-76
2022/05/23 00:14:06;;;;;;;0.00;0.00;;;;;;;;;;5037767;28;92319;-75
2022/05/23 00:16:36;;;;;;;0.00;0.00;;;;;;;;;;5037572;28;92622;-76
2022/05/23 00:19:03;;;;;;;0.00;0.00;;;;;;;;;;5035667;28;95479;-75
2022/05/23 00:21:30;;;;;;;0.00;0.00;;;;;;;;;;5037377;28;92222;-76
2022/05/23 00:23:57;;;;;;;0.20;0.20;;;;;;;;;;5037757;28;92774;-75
2022/05/23 00:26:23;;;;;;;0.20;0.20;;;;;;;;;;4987650;28;93069;-75
2022/05/23 00:28:49;;;;;;;0.00;0.00;;;;;;;;;;5037694;28;93194;-76
2022/05/23 00:31:16;;;;;;;0.00;0.00;;;;;;;;;;5025608;28;96415;-76
2022/05/23 00:36:29;;;;;;;0.00;0.00;;;;;;;;;;5020765;28;93911;-76
2022/05/23 00:38:57;;;;;;;0.00;0.00;;;;;;;;;;5037924;28;93067;-76
2022/05/23 00:44:12;;;;;;;0.00;0.00;;;;;;;;;;5041469;28;95771;-76
2022/05/23 00:47:07;;;;;;;0.00;0.00;;;;;;;;;;5041037;28;93445;-76
2022/05/23 00:49:36;;;;;;;0.60;0.60;;;;;;;;;;4988549;28;94631;-76
2022/05/23 00:52:05;;;;;;;0.00;0.00;;;;;;;;;;5037217;28;93319;-76
2022/05/23 00:54:37;;;;;;;0.00;0.00;;;;;;;;;;5019561;27;92544;-75
2022/05/23 00:57:17;;;;;;;0.00;0.00;;;;;;;;;;5043717;27;93331;-75
2022/05/23 00:59:44;;;;;;;0.10;0.10;;;;;;;;;;5042241;28;93716;-75
2022/05/23 01:02:11;;;;;;;0.00;0.00;;;;;;;;;;5014134;28;91815;-75
2022/05/23 01:04:41;;;;;;;0.00;0.00;;;;;;;;;;4999010;28;95022;-75
2022/05/23 01:07:08;;;;;;;0.00;0.00;;;;;;;;;;5015614;28;96048;-74
2022/05/23 01:09:35;;;;;;;0.03;0.03;;;;;;;;;;5000632;28;94812;-74
2022/05/23 01:12:02;;;;;;;0.15;0.15;;;;;;;;;;5015553;28;96322;-74
2022/05/23 01:14:48;;;;;;;0.00;0.00;;;;;;;;;;4999251;28;92349;-76
2022/05/23 01:17:15;;;;;;;0.00;0.00;;;;;;;;;;5015344;28;95888;-76
2022/05/23 01:19:42;;;;;;;0.00;0.00;;;;;;;;;;4998804;28;96205;-77
2022/05/23 01:22:17;;;;;;;0.00;0.00;;;;;;;;;;5015696;28;92321;-76
2022/05/23 01:25:01;;;;;;;0.00;0.00;;;;;;;;;;4998863;28;95282;-76
2022/05/23 01:27:29;;;;;;;0.00;0.00;;;;;;;;;;5016071;28;95196;-74
2022/05/23 01:29:55;;;;;;;0.28;0.28;;;;;;;;;;4995998;28;92586;-77
2022/05/23 01:32:22;;;;;;;0.00;0.00;;;;;;;;;;5003191;28;93484;-76
2022/05/23 01:34:52;;;;;;;0.00;0.00;;;;;;;;;;5013702;28;94777;-76
2022/05/23 01:37:19;;;;;;;0.00;0.00;;;;;;;;;;5015464;28;98461;-76
2022/05/23 01:39:57;;;;;;;0.00;0.00;;;;;;;;;;5015317;28;96095;-75
2022/05/23 01:42:41;;;;;;;0.00;0.00;;;;;;;;;;4998883;28;92403;-75
2022/05/23 01:45:09;;;;;;;0.00;0.00;;;;;;;;;;4981325;28;94129;-76
2022/05/23 01:47:35;;;;;;;0.00;0.00;;;;;;;;;;5015421;28;94217;-75
2022/05/23 01:50:02;;;;;;;0.10;0.10;;;;;;;;;;5015434;28;92578;-75
2022/05/23 01:52:37;;;;;;;0.00;0.00;;;;;;;;;;5015772;28;94156;-75
2022/05/23 01:55:10;;;;;;;0.00;0.00;;;;;;;;;;5001520;28;95575;-75
2022/05/23 01:57:42;;;;;;;0.00;0.00;;;;;;;;;;5015201;28;96025;-75
2022/05/23 02:02:57;;;;;;;0.00;0.00;;;;;;;;;;5009922;28;92406;-75
2022/05/23 02:05:25;;;;;;;0.00;0.00;;;;;;;;;;5018282;28;94745;-75
2022/05/23 02:07:52;;;;;;;0.00;0.00;;;;;;;;;;5018141;28;95804;-75
2022/05/23 02:10:19;;;;;;;0.00;0.00;;;;;;;;;;5017568;28;92362;-74
2022/05/23 02:12:47;;;;;;;0.00;0.00;;;;;;;;;;5018207;28;95386;-75
2022/05/23 02:15:18;;;;;;;0.00;0.00;;;;;;;;;;5035046;28;96128;-75
2022/05/23 02:18:04;;;;;;;0.00;0.00;;;;;;;;;;5022524;28;91629;-74
2022/05/23 02:20:30;;;;;;;0.00;0.00;;;;;;;;;;5018015;28;95883;-74
2022/05/23 02:22:57;;;;;;;0.00;0.00;;;;;;;;;;5018123;28;92387;-74
2022/05/23 02:25:26;;;;;;;0.00;0.00;;;;;;;;;;5033678;28;94861;-76
2022/05/23 02:27:53;;;;;;;0.00;0.00;;;;;;;;;;5034474;28;95947;-75
2022/05/23 02:30:20;;;;;;;0.00;0.00;;;;;;;;;;5017397;28;92428;-74
2022/05/23 02:32:47;;;;;;;0.10;0.10;;;;;;;;;;5034832;28;95306;-74
2022/05/23 02:35:14;;;;;;;0.00;0.00;;;;;;;;;;5017787;28;95976;-75
2022/05/23 02:37:41;;;;;;;0.00;0.00;;;;;;;;;;5018124;28;92250;-74
2022/05/23 02:40:09;;;;;;;0.00;0.00;;;;;;;;;;5020520;28;95698;-75
2022/05/23 02:42:36;;;;;;;0.00;0.00;;;;;;;;;;5022755;28;91737;-76
2022/05/23 02:45:06;;;;;;;0.00;0.00;;;;;;;;;;5023362;28;92832;-74
2022/05/23 02:47:35;;;;;;;0.00;0.00;;;;;;;;;;5034302;28;95416;-74
2022/05/23 02:50:04;;;;;;;0.00;0.00;;;;;;;;;;5016040;28;94716;-74
2022/05/23 02:52:37;;;;;;;0.00;0.00;;;;;;;;;;5018612;28;97802;-75
2022/05/23 02:55:13;;;;;;;0.00;0.00;;;;;;;;;;5034091;28;95585;-74
2022/05/23 02:57:40;;;;;;;0.00;0.00;;;;;;;;;;5017698;28;92507;-74
2022/05/23 03:00:15;;;;;;;0.00;0.00;;;;;;;;;;5037029;28;95659;-74
2022/05/23 03:03:03;;;;;;;0.00;0.00;;;;;;;;;;5007087;28;92351;-75
2022/05/23 03:05:46;;;;;;;0.00;0.00;;;;;;;;;;4997434;28;95714;-76
2022/05/23 03:08:14;;;;;;;0.10;0.10;;;;;;;;;;4997811;28;94631;-76
2022/05/23 03:10:40;;;;;;;0.10;0.10;;;;;;;;;;5013892;28;92328;-74
2022/05/23 03:13:09;;;;;;;0.00;0.00;;;;;;;;;;5014056;28;94677;-74
2022/05/23 03:15:36;;;;;;;0.00;0.00;;;;;;;;;;4995601;28;97716;-74
2022/05/23 03:18:03;;;;;;;0.00;0.00;;;;;;;;;;4995769;28;93056;-76
2022/05/23 03:20:32;;;;;;;0.00;0.00;;;;;;;;;;4995664;28;92624;-76
2022/05/23 03:28:31;;;;;;;0.00;0.00;;;;;;;;;;4978836;28;96362;-74
2022/05/23 03:30:58;;;;;;;0.00;0.00;;;;;;;;;;4955883;28;92439;-76
2022/05/23 03:33:24;;;;;;;0.00;0.00;;;;;;;;;;4956788;28;95805;-76
2022/05/23 03:35:51;;;;;;;0.00;0.00;;;;;;;;;;4956537;28;93120;-75
2022/05/23 03:38:18;;;;;;;0.00;0.00;;;;;;;;;;4956265;28;92570;-75
2022/05/23 03:40:44;;;;;;;1.52;0.10;;;;;;;;;;4955147;28;94808;-75
2022/05/23 03:43:11;;;;;;;0.00;0.00;;;;;;;;;;4939149;28;95205;-76
2022/05/23 03:45:38;;;;;;;0.00;0.00;;;;;;;;;;4959190;28;92365;-75
2022/05/23 03:48:09;;;;;;;;;;;;;;;;;;4941684;28;95481;-75
2022/05/23 03:50:36;;;;;;;0.00;0.00;;;;;;;;;;4974831;28;117194;-75
2022/05/23 03:53:06;;;;;;;0.00;0.00;;;;;;;;;;4959696;28;95641;-75
2022/05/23 03:55:38;;;;;;;0.20;0.20;;;;;;;;;;4959144;28;95222;-77
2022/05/23 03:58:11;;;;;;;0.00;0.00;;;;;;;;;;4976555;28;91613;-76
2022/05/23 04:00:38;;;;;;;0.00;0.00;;;;;;;;;;4959633;28;95305;-76
2022/05/23 04:03:05;;;;;;;0.00;0.00;;;;;;;;;;5005573;28;96545;-75
2022/05/23 04:05:33;;;;;;;0.00;0.00;;;;;;;;;;5014955;28;94806;-76
2022/05/23 04:08:28;;;;;;;0.00;0.00;;;;;;;;;;5006585;28;96560;-76
2022/05/23 04:10:59;;;;;;;7.05;0.70;;;;;;;;;;5032997;28;92347;-76
2022/05/23 04:13:26;;;;;;;0.00;0.00;;;;;;;;;;5033371;28;95464;-76
2022/05/23 04:15:54;;;;;;;0.00;0.00;;;;;;;;;;5017589;28;93629;-76
2022/05/23 04:18:21;;;;;;;0.10;0.10;;;;;;;;;;5016274;28;92459;-76
2022/05/23 04:20:49;;;;;;;0.10;0.10;;;;;;;;;;5015791;28;94860;-77
2022/05/23 04:23:18;;;;;;;0.10;0.10;;;;;;;;;;5016420;28;95199;-76
2022/05/23 04:25:47;;;;;;;0.00;0.00;;;;;;;;;;5016441;28;92448;-76
2022/05/23 04:28:15;;;;;;;0.00;0.00;;;;;;;;;;5016294;28;95286;-76
2022/05/23 04:30:43;;;;;;;0.00;0.00;;;;;;;;;;5034193;28;98435;-76
2022/05/23 04:35:56;;;;;;;0.00;0.00;;;;;;;;;;5017325;28;93000;-70
2022/05/23 04:38:29;;;;;;;0.22;0.22;;;;;;;;;;5032753;28;92462;-75
2022/05/23 04:40:59;;;;;;;0.00;0.00;;;;;;;;;;5016069;28;95997;-75
2022/05/23 04:43:28;;;;;;;0.00;0.00;;;;;;;;;;5032327;28;94254;-77
2022/05/23 04:45:55;;;;;;;0.10;0.10;;;;;;;;;;5032479;28;93006;-75
2022/05/23 04:51:36;;;;;;;;;;;;;;;;;;5016079;28;96428;-75
2022/05/23 04:54:03;;;;;;;0.00;0.00;;;;;;;;;;5019005;28;92415;-76
2022/05/23 04:56:29;;;;;;;0.10;0.10;;;;;;;;;;5015104;28;98932;-77
2022/05/23 04:59:04;;;;;;;0.00;0.00;;;;;;;;;;5015681;28;92352;-75
2022/05/23 05:01:30;;;;;;;0.10;0.10;;;;;;;;;;5015912;28;95353;-74
2022/05/23 05:03:57;;;;;;;0.00;0.00;;;;;;;;;;5032402;28;97057;-75
2022/05/23 05:06:30;;;;;;;0.00;0.00;;;;;;;;;;5032286;28;92468;-81
2022/05/23 05:09:01;;;;;;;0.00;0.00;;;;;;;;;;5032070;28;93875;-76
2022/05/23 05:11:27;;;;;;;0.00;0.00;;;;;;;;;;5032385;28;95680;-76
2022/05/23 05:14:17;;;;;;;0.00;0.00;;;;;;;;;;5035888;28;91680;-76
2022/05/23 05:16:49;;;;;;;;;;;;;;;;;;5015927;28;95515;-76
2022/05/23 05:19:15;;;;;;;0.10;0.10;;;;;;;;;;5031728;28;99926;-79
2022/05/23 05:21:54;;;;;;;0.10;0.10;;;;;;;;;;5014994;28;94749;-77
2022/05/23 05:24:26;;;;;;;0.00;0.00;;;;;;;;;;5014842;28;93489;-77
2022/05/23 05:27:19;;;;;;;0.00;0.00;;;;;;;;;;5032088;28;92630;-77
2022/05/23 05:29:45;;;;;;;0.03;0.03;;;;;;;;;;5015440;28;94502;-77
2022/05/23 05:32:15;;;;;;;0.00;0.00;;;;;;;;;;5020553;28;96264;-77
2022/05/23 05:34:56;;;;;;;0.00;0.00;;;;;;;;;;5025558;28;92421;-78
2022/05/23 05:37:28;;;;;;;0.00;0.00;;;;;;;;;;5030085;28;93272;-77
2022/05/23 05:39:57;;;;;;;0.00;0.00;;;;;;;;;;5025659;28;91670;-73
2022/05/23 05:42:35;;;;;;;0.25;0.17;;;;;;;;;;5025267;28;92904;-78
2022/05/23 05:45:06;;;;;;;0.10;0.10;;;;;;;;;;5028153;28;95491;-77
2022/05/23 05:47:34;;;;;;;0.00;0.00;;;;;;;;;;5025809;28;94861;-78
2022/05/23 05:50:07;;;;;;;0.20;0.20;;;;;;;;;;5035932;28;96413;-76
2022/05/23 05:52:44;;;;;;;0.00;0.00;;;;;;;;;;5038546;28;95263;-78
2022/05/23 05:55:14;;;;;;;0.10;0.10;;;;;;;;;;5021018;28;93229;-76
2022/05/23 05:57:48;;;;;;;0.00;0.00;;;;;;;;;;5038607;28;94664;-75
2022/05/23 06:00:15;;;;;;;0.10;0.10;;;;;;;;;;5041481;28;95071;-76
2022/05/23 06:02:50;;;;;;;0.00;0.00;;;;;;;;;;5037906;28;96397;-76
2022/05/23 06:05:20;;;;;;;0.10;0.10;;;;;;;;;;5038602;28;95784;-77
2022/05/23 06:13:55;;;;;;;0.10;0.10;;;;;;;;;;5035271;27;97183;-75
2022/05/23 06:16:40;;;;;;;0.20;0.20;;;;;;;;;;5038480;28;92386;-76
2022/05/23 06:19:16;;;;;;;0.00;0.00;;;;;;;;;;5038502;28;95168;-79
2022/05/23 06:21:55;;;;;;;0.17;0.17;;;;;;;;;;5037845;28;95209;-77
2022/05/23 06:24:23;;;;;;;0.10;0.10;;;;;;;;;;4990312;28;92385;-77
2022/05/23 06:26:54;;;;;;;0.10;0.10;;;;;;;;;;5038320;28;95573;-77
2022/05/23 06:29:44;;;;;;;0.03;0.03;;;;;;;;;;5038350;28;92389;-76
2022/05/23 06:32:29;;;;;;;0.10;0.10;;;;;;;;;;5037010;28;92469;-75
2022/05/23 06:34:56;;;;;;;0.20;0.20;;;;;;;;;;5038055;28;95594;-76
2022/05/23 06:37:27;;;;;;;0.10;0.10;;;;;;;;;;5038349;28;92227;-77
2022/05/23 06:40:07;;;;;;;0.15;0.15;;;;;;;;;;5036629;28;95154;-75
2022/05/23 06:42:53;;;;;;;0.10;0.10;;;;;;;;;;5038484;28;93797;-76
2022/05/23 06:45:39;;;;;;;0.90;0.30;;;;;;;;;;5037138;28;92809;-79
2022/05/23 06:48:35;;;;;;;0.00;0.00;;;;;;;;;;5003963;27;92320;-78
2022/05/23 06:51:07;;;;;;;0.10;0.10;;;;;;;;;;5037466;28;93531;-76
2022/05/23 06:53:36;;;;;;;0.00;0.00;;;;;;;;;;5037835;28;95177;-79
2022/05/23 06:56:23;;;;;;;0.10;0.10;;;;;;;;;;5037530;27;95868;-77
2022/05/23 06:58:55;;;;;;;0.10;0.10;;;;;;;;;;5038287;28;91639;-79
2022/05/23 07:01:28;;;;;;;0.30;0.30;;;;;;;;;;5037967;28;94496;-78
2022/05/23 07:04:18;;;;;;;0.10;0.10;;;;;;;;;;5048083;28;92595;-76
2022/05/23 07:12:45;;;;;;;0.10;0.10;;;;;;;;;;5037878;28;92262;-76
2022/05/23 07:15:15;;;;;;;0.28;0.28;;;;;;;;;;5037517;28;95977;-80
2022/05/23 07:17:41;;;;;;;0.10;0.10;;;;;;;;;;5037269;28;95145;-75
2022/05/23 07:20:11;;;;;;;0.30;0.30;;;;;;;;;;5037907;27;92319;-76
2022/05/23 07:22:39;;;;;;;0.10;0.10;;;;;;;;;;5037506;28;94730;-75
2022/05/23 07:25:06;;;;;;;0.17;0.17;;;;;;;;;;5021281;28;94570;-75
2022/05/23 07:27:33;;;;;;;0.32;0.32;;;;;;;;;;5015663;28;92467;-75
2022/05/23 07:29:59;;;;;;;0.20;0.20;;;;;;;;;;5016214;28;95583;-75
2022/05/23 07:32:29;;;;;;;0.17;0.17;;;;;;;;;;5000768;28;97702;-76
2022/05/23 07:34:56;;;;;;;0.10;0.10;;;;;;;;;;4996253;28;97346;-75
2022/05/23 07:37:24;;;;;;;0.10;0.10;;;;;;;;;;4982641;28;95660;-75
2022/05/23 07:40:36;;;;;;;0.43;0.43;;;;;;;;;;4999079;28;92373;-77
2022/05/23 07:43:16;;;;;;;0.10;0.10;;;;;;;;;;4998610;28;94461;-75
2022/05/23 07:45:43;;;;;;;0.35;0.35;;;;;;;;;;5015385;28;94864;-78
2022/05/23 07:51:58;;;;;;;0.40;0.40;;;;;;;;;;4983623;28;94876;-76
2022/05/23 08:03:17;;;;;;;0.60;0.60;;;;;;;;;;5036171;28;92437;-77
2022/05/23 08:06:02;;;;;;;0.10;0.10;;;;;;;;;;5037332;28;92317;-79
2022/05/23 08:08:29;;;;;;;0.20;0.20;;;;;;;;;;5035855;28;95749;-76
2022/05/23 08:10:55;;;;;;;0.20;0.20;;;;;;;;;;5036432;28;92383;-77
2022/05/23 08:13:22;;;;;;;0.15;0.15;;;;;;;;;;5036558;28;95313;-77
2022/05/23 08:15:50;;;;;;;0.10;0.10;;;;;;;;;;5018115;28;95723;-78
2022/05/23 08:18:18;;;;;;;1.45;0.52;;;;;;;;;;5036796;28;91573;-75
2022/05/23 08:20:54;;;;;;;0.10;0.10;;;;;;;;;;5023808;28;94993;-78
2022/05/23 08:23:26;;;;;;;0.10;0.10;;;;;;;;;;5020116;28;92391;-77
2022/05/23 08:26:28;;;;;;;0.20;0.20;;;;;;;;;;5020929;27;94688;-76
2022/05/23 08:28:54;;;;;;;0.10;0.10;;;;;;;;;;5036488;28;95873;-76
2022/05/23 08:31:25;;;;;;;0.20;0.20;;;;;;;;;;5036262;28;92405;-77
2022/05/23 08:34:04;;;;;;;0.10;0.10;;;;;;;;;;5036376;28;95543;-76
2022/05/23 08:36:31;;;;;;;0.30;0.30;;;;;;;;;;5035806;28;95160;-76
2022/05/23 08:38:59;;;;;;;0.10;0.10;;;;;;;;;;5036134;28;92783;-76
2022/05/23 08:41:44;;;;;;;0.20;0.20;;;;;;;;;;5035542;28;95560;-75
2022/05/23 08:44:32;;;;;;;1.13;0.30;;;;;;;;;;5038501;28;91910;-76
2022/05/23 08:47:02;;;;;;;0.10;0.10;;;;;;;;;;5035769;28;95444;-76
2022/05/23 08:49:34;;;;;;;0.17;0.17;;;;;;;;;;5035668;28;96357;-77
2022/05/23 08:52:13;;;;;;;0.20;0.20;;;;;;;;;;5012119;28;94996;-76
2022/05/23 08:54:51;;;;;;;0.20;0.20;;;;;;;;;;4986357;28;96292;-75
2022/05/23 08:57:48;;;;;;;0.10;0.10;;;;;;;;;;5016069;28;92197;-75
2022/05/23 09:00:16;;;;;;;1.13;0.30;;;;;;;;;;5016363;28;92357;-76
2022/05/23 09:02:51;;;;;;;0.10;0.10;;;;;;;;;;5006995;28;95828;-76
2022/05/23 09:05:32;;;;;;;0.22;0.22;;;;;;;;;;4994844;28;95441;-75
2022/05/23 09:08:24;;;;;;;0.30;0.30;;;;;;;;;;4999082;28;92409;-77
2022/05/23 09:11:22;;;;;;;0.20;0.20;;;;;;;;;;4989008;28;94855;-77
2022/05/23 09:14:11;;;;;;;0.10;0.10;;;;;;;;;;4985418;28;92260;-77
2022/05/23 09:16:41;;;;;;;0.13;0.13;;;;;;;;;;4996023;28;94891;-76
2022/05/23 09:19:15;;;;;;;0.10;0.10;;;;;;;;;;4985588;28;98781;-77
2022/05/23 09:24:58;;;;;;;0.10;0.10;;;;;;;;;;4999396;28;93298;-77
2022/05/23 09:28:00;;;;;;;0.10;0.10;;;;;;;;;;4986447;28;97020;-77
2022/05/23 09:33:41;;;;;;;0.65;0.65;;;;;;;;;;4980531;28;94539;-77
2022/05/23 09:36:24;;;;;;;15.80;2.22;;;;;;;;;;4999394;28;92371;-77
2022/05/23 09:39:52;;;;;;;0.30;0.25;;;;;;;;;;5004723;28;96096;-77
2022/05/23 09:48:24;;;;;;;0.32;0.32;;;;;;;;;;4996446;28;95384;-75
2022/05/23 09:51:10;;;;;;;0.10;0.10;;;;;;;;;;5001750;28;93005;-76
2022/05/23 09:53:47;;;;;;;3.10;1.85;;;;;;;;;;5006422;28;92345;-74
2022/05/23 09:56:23;;;;;;;0.10;0.10;;;;;;;;;;5007970;28;93293;-77
2022/05/23 09:58:50;;;;;;;0.13;0.13;;;;;;;;;;5006637;28;92353;-77
2022/05/23 10:01:31;;;;;;;0.10;0.10;;;;;;;;;;4999221;28;93734;-77
2022/05/23 10:03:58;;;;;;;0.10;0.10;;;;;;;;;;4998176;28;95004;-77
2022/05/23 10:07:22;;;;;;;0.40;0.28;;;;;;;;;;4999345;28;91531;-77
2022/05/23 10:09:57;;;;;;;0.23;0.23;;;;;;;;;;4998205;28;93929;-78
2022/05/23 10:12:44;;;;;;;0.13;0.13;;;;;;;;;;4998216;28;94057;-78
2022/05/23 10:15:32;;;;;;;0.20;0.20;;;;;;;;;;4986291;28;94813;-73
2022/05/23 10:18:01;;;;;;;0.22;0.22;;;;;;;;;;4999073;28;95193;-74
2022/05/23 10:20:27;;;;;;;0.17;0.17;;;;;;;;;;5005309;28;93693;-76
2022/05/23 10:23:00;;;;;;;0.10;0.10;;;;;;;;;;4998719;28;92892;-76
2022/05/23 10:25:29;;;;;;;0.28;0.28;;;;;;;;;;5002935;28;93733;-78
2022/05/23 10:28:00;;;;;;;0.20;0.20;;;;;;;;;;5001253;28;92286;-77
2022/05/23 10:30:30;;;;;;;0.10;0.10;;;;;;;;;;5002481;28;92897;-76
2022/05/23 10:33:01;;;;;;;0.10;0.10;;;;;;;;;;5008942;28;95487;-78
2022/05/23 10:35:31;;;;;;;3.53;0.25;;;;;;;;;;5011987;28;92391;-76
2022/05/23 10:42:07;;;;;;;0.10;0.10;;;;;;;;;;4998789;28;93158;-76
2022/05/23 10:43:40;;;;;;;0.40;0.40;;;;;;;;;;5001462;28;92364;-76
2022/05/23 10:46:07;;;;;;;0.10;0.10;;;;;;;;;;4998779;28;93058;-77
2022/05/23 10:48:46;;;;;;;0.20;0.20;;;;;;;;;;4998361;28;92433;-78
2022/05/23 10:51:16;;;;;;;0.10;0.10;;;;;;;;;;4997500;28;93467;-78
2022/05/23 10:53:43;;;;;;;0.10;0.10;;;;;;;;;;4997603;28;94850;-74
2022/05/23 10:56:18;;;;;;;0.28;0.28;;;;;;;;;;4998337;28;92332;-78
2022/05/23 10:58:51;;;;;;;0.35;0.35;;;;;;;;;;4997610;28;95330;-76
2022/05/23 11:01:23;;;;;;;0.10;0.10;;;;;;;;;;4997650;28;93551;-76
2022/05/23 11:04:07;;;;;;;0.73;0.73;;;;;;;;;;4997032;28;92372;-76
2022/05/23 11:06:37;;;;;;;0.30;0.30;;;;;;;;;;4998989;28;95405;-76
2022/05/23 11:09:18;;;;;;;0.05;0.05;;;;;;;;;;4998098;28;92298;-76
2022/05/23 11:12:04;;;;;;;0.10;0.10;;;;;;;;;;4997917;28;93307;-76
2022/05/23 11:14:47;;;;;;;0.10;0.10;;;;;;;;;;5002440;28;93652;-76
2022/05/23 11:17:27;;;;;;;0.10;0.10;;;;;;;;;;5010037;28;92484;-77
2022/05/23 11:20:05;;;;;;;0.13;0.13;;;;;;;;;;5000767;28;93571;-77
2022/05/23 11:22:36;;;;;;;0.10;0.10;;;;;;;;;;4998025;28;94211;-78
2022/05/23 11:25:20;;;;;;;0.10;0.10;;;;;;;;;;4999272;28;91547;-79
2022/05/23 11:33:45;;;;;;;0.13;0.13;;;;;;;;;;4996401;28;94602;-79
2022/05/23 11:36:15;;;;;;;0.60;0.30;;;;;;;;;;4997967;28;93123;-79
2022/05/23 11:38:45;;;;;;;0.22;0.22;;;;;;;;;;4997671;28;92922;-80
2022/05/23 11:41:27;;;;;;;0.10;0.10;;;;;;;;;;4997429;28;95510;-78
2022/05/23 11:43:53;;;;;;;0.20;0.20;;;;;;;;;;4997505;28;93709;-78
2022/05/23 11:46:27;;;;;;;0.20;0.20;;;;;;;;;;4997725;28;92336;-78
2022/05/23 11:48:56;;;;;;;0.80;0.60;;;;;;;;;;5000422;28;96386;-78
2022/05/23 11:51:25;;;;;;;0.47;0.32;;;;;;;;;;5005355;28;94722;-79
2022/05/23 11:54:00;;;;;;;0.10;0.10;;;;;;;;;;4997316;28;92278;-77
2022/05/23 11:56:36;;;;;;;1.60;1.50;;;;;;;;;;4997421;28;93866;-78
2022/05/23 11:59:03;;;;;;;0.20;0.20;;;;;;;;;;4995559;28;95659;-78
2022/05/23 12:01:30;;;;;;;0.45;0.45;;;;;;;;;;4999785;28;95523;-78
2022/05/23 12:03:58;;;;;;;0.20;0.20;;;;;;;;;;5026446;27;93741;-79
2022/05/23 12:06:24;;;;;;;0.10;0.10;;;;;;;;;;5037184;27;92528;-80
2022/05/23 12:08:59;;;;;;;0.20;0.20;;;;;;;;;;5037188;27;93273;-78
2022/05/23 12:11:33;;;;;;;0.20;0.20;;;;;;;;;;5039861;27;93001;-79
2022/05/23 12:14:11;;;;;;;0.20;0.20;;;;;;;;;;5040308;27;92332;-76
2022/05/23 12:16:39;;;;;;;0.10;0.10;;;;;;;;;;5037423;27;92731;-77
2022/05/23 12:19:26;;;;;;;0.10;0.10;;;;;;;;;;5037529;27;92331;-82
2022/05/23 12:21:53;;;;;;;0.30;0.30;;;;;;;;;;5022897;27;93384;-76
2022/05/23 12:24:22;;;;;;;0.17;0.17;;;;;;;;;;5035174;27;96019;-77
2022/05/23 12:27:22;;;;;;;0.10;0.10;;;;;;;;;;5037243;27;92344;-77
2022/05/23 12:29:48;;;;;;;0.20;0.20;;;;;;;;;;5036912;27;92742;-77
2022/05/23 12:32:24;;;;;;;0.10;0.10;;;;;;;;;;5039831;27;93847;-79
2022/05/23 12:34:52;;;;;;;0.10;0.10;;;;;;;;;;5018909;27;92454;-79
2022/05/23 12:37:33;;;;;;;0.45;0.45;;;;;;;;;;5039416;27;93337;-78
2022/05/23 12:40:18;;;;;;;0.20;0.20;;;;;;;;;;5020104;27;93200;-75
2022/05/23 12:42:45;;;;;;;0.28;0.28;;;;;;;;;;5037863;28;93899;-77
2022/05/23 12:45:32;;;;;;;0.15;0.15;;;;;;;;;;5019256;28;95432;-78
2022/05/23 12:48:11;;;;;;;0.10;0.10;;;;;;;;;;5038166;27;93289;-79
2022/05/23 12:50:53;;;;;;;0.10;0.10;;;;;;;;;;5029885;28;95376;-79
2022/05/23 12:54:00;;;;;;;0.10;0.10;;;;;;;;;;5032637;27;93962;-79
2022/05/23 12:57:22;;;;;;;0.25;0.25;;;;;;;;;;5004014;27;92465;-79
2022/05/23 13:00:40;;;;;;;0.10;0.10;;;;;;;;;;5028589;28;92440;-79
2022/05/23 13:25:11;;;;;;;0.20;0.20;;;;;;;;;;4998923;27;92560;-82
2022/05/23 13:27:49;;;;;;;0.10;0.10;;;;;;;;;;5036982;27;94800;-80
2022/05/23 13:30:31;;;;;;;0.10;0.10;;;;;;;;;;5034910;27;95427;-79
2022/05/23 13:33:11;;;;;;;0.10;0.10;;;;;;;;;;5036020;27;93177;-80
2022/05/23 13:35:44;;;;;;;0.13;0.13;;;;;;;;;;5038887;27;93311;-82
2022/05/23 13:38:25;;;;;;;0.17;0.17;;;;;;;;;;5038028;27;92975;-78
2022/05/23 13:40:59;;;;;;;0.20;0.20;;;;;;;;;;5018245;28;92435;-82
2022/05/23 13:43:31;;;;;;;0.20;0.20;;;;;;;;;;5018233;27;93457;-78
2022/05/23 13:46:18;;;;;;;0.20;0.20;;;;;;;;;;5036268;27;93167;-75
2022/05/23 13:48:50;;;;;;;0.10;0.10;;;;;;;;;;5041077;27;92506;-77
2022/05/23 13:51:16;;;;;;;;;;;;;;;;;;5036776;27;92911;-77
2022/05/23 13:53:48;;;;;;;0.10;0.10;;;;;;;;;;5032874;27;125976;-76
2022/05/23 13:56:14;;;;;;;0.10;0.10;;;;;;;;;;5035807;27;92367;-76
2022/05/23 13:58:53;;;;;;;0.10;0.10;;;;;;;;;;5041315;27;93239;-75
2022/05/23 14:01:21;;;;;;;0.10;0.10;;;;;;;;;;5035390;27;92424;-74
2022/05/23 14:04:07;;;;;;;0.20;0.20;;;;;;;;;;5035834;27;93460;-75
2022/05/23 14:06:40;;;;;;;0.13;0.13;;;;;;;;;;5037651;27;94188;-76
2022/05/23 14:09:07;;;;;;;0.10;0.10;;;;;;;;;;5038519;27;92444;-76
2022/05/23 14:11:35;;;;;;;0.10;0.10;;;;;;;;;;5039632;27;93602;-77
2022/05/23 14:14:20;;;;;;;0.20;0.20;;;;;;;;;;5038681;27;93608;-75
2022/05/23 14:16:53;;;;;;;0.70;0.63;;;;;;;;;;5038700;27;92244;-76
2022/05/23 14:19:22;;;;;;;0.30;0.30;;;;;;;;;;5022270;27;95093;-73
2022/05/23 14:22:00;;;;;;;0.17;0.17;;;;;;;;;;5038425;27;92703;-77
2022/05/23 14:24:28;;;;;;;0.20;0.20;;;;;;;;;;5021250;27;92665;-77
2022/05/23 14:27:14;;;;;;;0.20;0.20;;;;;;;;;;5038793;27;94691;-77
2022/05/23 14:29:42;;;;;;;0.13;0.13;;;;;;;;;;5021010;27;92332;-75
2022/05/23 14:32:26;;;;;;;0.13;0.13;;;;;;;;;;5038451;27;93732;-76
2022/05/23 14:34:53;;;;;;;1.38;1.33;;;;;;;;;;5038579;27;94200;-74
2022/05/23 14:37:21;;;;;;;0.20;0.20;;;;;;;;;;5039589;27;91639;-76
2022/05/23 14:39:49;;;;;;;0.10;0.10;;;;;;;;;;5038348;27;94066;-75
2022/05/23 14:42:29;;;;;;;1.95;1.58;;;;;;;;;;5024000;27;93485;-75
2022/05/23 14:45:14;;;;;;;0.55;0.50;;;;;;;;;;5036928;27;94796;-77
2022/05/23 14:47:55;;;;;;;0.63;0.63;;;;;;;;;;5038701;27;93404;-75
2022/05/23 14:50:27;;;;;;;0.03;0.03;;;;;;;;;;5038415;27;92460;-75
2022/05/23 14:55:52;;;;;;;0.17;0.17;;;;;;;;;;5038204;27;93667;-77
2022/05/23 15:01:16;;;;;;;0.17;0.17;;;;;;;;;;5038119;27;93253;-76
2022/05/23 15:03:44;;;;;;;0.10;0.10;;;;;;;;;;5038369;27;92852;-74
2022/05/23 15:06:10;;;;;;;0.10;0.10;;;;;;;;;;5041013;27;92482;-75
2022/05/23 15:08:37;;;;;;;0.20;0.20;;;;;;;;;;5001105;27;93384;-75
2022/05/23 15:11:05;;;;;;;0.10;0.10;;;;;;;;;;5036189;27;95037;-76
2022/05/23 15:13:33;;;;;;;0.10;0.10;;;;;;;;;;5037550;27;96053;-73
2022/05/23 15:16:04;;;;;;;0.40;0.40;;;;;;;;;;5037457;27;94195;-76
2022/05/23 15:18:31;;;;;;;0.35;0.25;;;;;;;;;;5040167;27;92389;-76
2022/05/23 15:20:58;;;;;;;1.02;0.93;;;;;;;;;;5037949;27;93204;-75
2022/05/23 15:23:24;;;;;;;0.10;0.10;;;;;;;;;;5037682;27;93395;-75
2022/05/23 15:25:51;;;;;;;0.10;0.10;;;;;;;;;;5037721;27;92402;-73
2022/05/23 15:28:17;;;;;;;0.40;0.40;;;;;;;;;;5043683;27;95382;-74
2022/05/23 15:30:44;;;;;;;0.30;0.30;;;;;;;;;;5039518;27;92470;-76
2022/05/23 15:33:10;;;;;;;0.30;0.30;;;;;;;;;;5038928;27;93548;-76
2022/05/23 15:35:37;;;;;;;0.10;0.10;;;;;;;;;;5035867;27;95671;-75
2022/05/23 15:38:03;;;;;;;0.20;0.20;;;;;;;;;;5040724;27;92884;-76
2022/05/23 15:40:30;;;;;;;0.13;0.13;;;;;;;;;;5037821;27;93602;-76
2022/05/23 15:42:56;;;;;;;0.28;0.28;;;;;;;;;;5037096;28;93135;-75
2022/05/23 15:45:25;;;;;;;0.40;0.40;;;;;;;;;;5037693;27;92410;-73
2022/05/23 15:47:53;;;;;;;0.52;0.52;;;;;;;;;;5037502;27;92832;-76
2022/05/23 15:50:20;;;;;;;0.00;0.00;;;;;;;;;;5040233;27;93607;-76
2022/05/23 15:52:46;;;;;;;0.17;0.17;;;;;;;;;;5037719;27;93361;-76
2022/05/23 15:55:14;;;;;;;0.10;0.10;;;;;;;;;;5037126;27;93810;-77
2022/05/23 15:57:49;;;;;;;9.07;1.90;;;;;;;;;;5036772;27;93610;-80
2022/05/23 16:00:18;;;;;;;0.50;0.50;;;;;;;;;;5035201;27;95021;-74
2022/05/23 16:02:51;;;;;;;0.17;0.17;;;;;;;;;;5037027;28;93477;-75
2022/05/23 16:05:18;;;;;;;0.30;0.30;;;;;;;;;;5036854;27;92374;-78
2022/05/23 16:07:45;;;;;;;0.10;0.10;;;;;;;;;;5037332;27;93311;-76
2022/05/23 16:10:12;;;;;;;0.10;0.10;;;;;;;;;;5036699;27;92907;-76
2022/05/23 16:12:42;;;;;;;0.10;0.10;;;;;;;;;;5040391;27;92362;-74
2022/05/23 16:15:09;;;;;;;0.47;0.47;;;;;;;;;;5036433;27;94513;-76
2022/05/23 16:17:37;;;;;;;0.10;0.10;;;;;;;;;;5038385;27;91614;-74
2022/05/23 16:20:04;;;;;;;0.10;0.10;;;;;;;;;;5037137;27;92967;-73
2022/05/23 16:22:32;;;;;;;0.40;0.40;;;;;;;;;;5036403;27;93422;-71
2022/05/23 16:24:59;;;;;;;0.45;0.45;;;;;;;;;;5035053;27;95241;-72
2022/05/23 16:27:44;;;;;;;0.13;0.13;;;;;;;;;;5035689;27;95708;-71
2022/05/23 16:30:14;;;;;;;0.35;0.35;;;;;;;;;;4994371;28;94448;-72
2022/05/23 16:38:43;;;;;;;0.20;0.20;;;;;;;;;;4997944;28;92586;-71
2022/05/23 16:41:11;;;;;;;1.13;0.63;;;;;;;;;;4993941;28;94488;-74
2022/05/23 16:43:37;;;;;;;0.17;0.17;;;;;;;;;;4995108;28;93105;-72
2022/05/23 16:46:04;;;;;;;0.20;0.20;;;;;;;;;;4989951;28;92486;-73
2022/05/23 16:48:30;;;;;;;0.30;0.20;;;;;;;;;;4994126;28;93413;-73
2022/05/23 16:50:58;;;;;;;0.15;0.15;;;;;;;;;;4975533;28;97120;-73
2022/05/23 16:53:24;;;;;;;0.10;0.10;;;;;;;;;;4994249;28;92295;-71
2022/05/23 16:55:51;;;;;;;0.20;0.20;;;;;;;;;;4997572;28;93405;-71
2022/05/23 16:58:20;;;;;;;0.43;0.43;;;;;;;;;;4997316;28;92207;-71